sensor_id;sensor_type;location;lat;lon;timestamp;temperature;humidity
16627;DHT22;8427;52.204;7.202;2024-03-22T00:02:24;9.90;85.10
16627;DHT22;8427;52.204;7.202;2024-03-22T00:04:51;10.10;85.10
16627;DHT22;8427;52.204;7.202;2024-03-22T00:07:18;10.10;85.00
16627;DHT22;8427;52.204;7.202;2024-03-22T00:09:45;10.10;84.80
16627;DHT22;8427;52.204;7.202;2024-03-22T00:12:11;10.20;84.90
16627;DHT22;8427;52.204;7.202;2024-03-22T00:14:38;10.20;84.70
16627;DHT22;8427;52.204;7.202;2024-03-22T00:17:04;10.20;84.90
16627;DHT22;8427;52.204;7.202;2024-03-22T00:19:33;10.10;84.90
16627;DHT22;8427;52.204;7.202;2024-03-22T00:21:58;10.20;84.90
16627;DHT22;8427;52.204;7.202;2024-03-22T00:24:25;10.20;85.00
16627;DHT22;8427;52.204;7.202;2024-03-22T00:26:51;10.20;85.10
16627;DHT22;8427;52.204;7.202;2024-03-22T00:29:18;10.10;85.10
16627;DHT22;8427;52.204;7.202;2024-03-22T00:31:44;10.10;85.10
16627;DHT22;8427;52.204;7.202;2024-03-22T00:34:11;10.20;85.20
16627;DHT22;8427;52.204;7.202;2024-03-22T00:36:38;10.20;85.50
16627;DHT22;8427;52.204;7.202;2024-03-22T00:39:05;10.00;85.40
16627;DHT22;8427;52.204;7.202;2024-03-22T00:41:31;10.20;85.30
16627;DHT22;8427;52.204;7.202;2024-03-22T00:43:58;10.20;85.50
16627;DHT22;8427;52.204;7.202;2024-03-22T00:46:24;10.10;85.60
16627;DHT22;8427;52.204;7.202;2024-03-22T00:48:51;10.10;85.60
16627;DHT22;8427;52.204;7.202;2024-03-22T00:51:17;10.10;85.70
16627;DHT22;8427;52.204;7.202;2024-03-22T00:53:45;10.10;85.90
16627;DHT22;8427;52.204;7.202;2024-03-22T00:56:11;10.10;86.00
16627;DHT22;8427;52.204;7.202;2024-03-22T00:58:38;10.10;85.90
16627;DHT22;8427;52.204;7.202;2024-03-22T01:01:04;10.20;85.90
16627;DHT22;8427;52.204;7.202;2024-03-22T01:03:31;10.20;86.00
16627;DHT22;8427;52.204;7.202;2024-03-22T01:05:57;10.20;86.00
16627;DHT22;8427;52.204;7.202;2024-03-22T01:08:24;10.20;86.10
16627;DHT22;8427;52.204;7.202;2024-03-22T01:10:52;10.20;86.30
16627;DHT22;8427;52.204;7.202;2024-03-22T01:13:19;10.00;86.50
16627;DHT22;8427;52.204;7.202;2024-03-22T01:15:45;10.10;86.50
16627;DHT22;8427;52.204;7.202;2024-03-22T01:18:12;10.20;86.60
16627;DHT22;8427;52.204;7.202;2024-03-22T01:20:38;10.20;86.70
16627;DHT22;8427;52.204;7.202;2024-03-22T01:23:05;10.00;86.90
16627;DHT22;8427;52.204;7.202;2024-03-22T01:25:32;10.00;86.70
16627;DHT22;8427;52.204;7.202;2024-03-22T01:28:00;10.30;86.60
16627;DHT22;8427;52.204;7.202;2024-03-22T01:30:27;10.20;86.70
16627;DHT22;8427;52.204;7.202;2024-03-22T01:32:55;10.20;86.90
16627;DHT22;8427;52.204;7.202;2024-03-22T01:35:22;10.10;86.90
16627;DHT22;8427;52.204;7.202;2024-03-22T01:37:48;10.20;86.90
16627;DHT22;8427;52.204;7.202;2024-03-22T01:40:15;10.20;86.70
16627;DHT22;8427;52.204;7.202;2024-03-22T01:42:41;10.10;87.00
16627;DHT22;8427;52.204;7.202;2024-03-22T01:45:09;10.30;86.90
16627;DHT22;8427;52.204;7.202;2024-03-22T01:47:37;10.30;87.00
16627;DHT22;8427;52.204;7.202;2024-03-22T01:50:04;10.30;86.90
16627;DHT22;8427;52.204;7.202;2024-03-22T01:52:30;10.30;86.80
16627;DHT22;8427;52.204;7.202;2024-03-22T01:54:57;10.30;87.30
16627;DHT22;8427;52.204;7.202;2024-03-22T01:57:23;10.30;87.10
16627;DHT22;8427;52.204;7.202;2024-03-22T01:59:51;10.30;87.30
16627;DHT22;8427;52.204;7.202;2024-03-22T02:02:21;10.10;87.50
16627;DHT22;8427;52.204;7.202;2024-03-22T02:04:49;10.30;87.50
16627;DHT22;8427;52.204;7.202;2024-03-22T02:07:16;10.30;87.50
16627;DHT22;8427;52.204;7.202;2024-03-22T02:09:42;10.40;87.40
16627;DHT22;8427;52.204;7.202;2024-03-22T02:12:09;10.40;87.30
16627;DHT22;8427;52.204;7.202;2024-03-22T02:14:36;10.40;87.30
16627;DHT22;8427;52.204;7.202;2024-03-22T02:17:02;10.40;87.40
16627;DHT22;8427;52.204;7.202;2024-03-22T02:19:30;10.30;87.60
16627;DHT22;8427;52.204;7.202;2024-03-22T02:21:56;10.40;87.50
16627;DHT22;8427;52.204;7.202;2024-03-22T02:24:24;10.40;87.50
16627;DHT22;8427;52.204;7.202;2024-03-22T02:26:50;10.40;87.60
16627;DHT22;8427;52.204;7.202;2024-03-22T02:29:17;10.40;87.60
16627;DHT22;8427;52.204;7.202;2024-03-22T02:31:43;10.40;87.60
16627;DHT22;8427;52.204;7.202;2024-03-22T02:34:10;10.50;87.60
16627;DHT22;8427;52.204;7.202;2024-03-22T02:36:36;10.50;87.50
16627;DHT22;8427;52.204;7.202;2024-03-22T02:39:03;10.50;87.70
16627;DHT22;8427;52.204;7.202;2024-03-22T02:41:30;10.40;87.90
16627;DHT22;8427;52.204;7.202;2024-03-22T02:43:57;10.50;87.80
16627;DHT22;8427;52.204;7.202;2024-03-22T02:46:23;10.50;87.80
16627;DHT22;8427;52.204;7.202;2024-03-22T02:48:50;10.40;87.80
16627;DHT22;8427;52.204;7.202;2024-03-22T02:51:16;10.40;87.90
16627;DHT22;8427;52.204;7.202;2024-03-22T02:53:43;10.50;87.90
16627;DHT22;8427;52.204;7.202;2024-03-22T02:56:08;10.50;87.80
16627;DHT22;8427;52.204;7.202;2024-03-22T02:58:37;10.50;87.90
16627;DHT22;8427;52.204;7.202;2024-03-22T03:01:03;10.60;87.90
16627;DHT22;8427;52.204;7.202;2024-03-22T03:03:31;10.60;87.90
16627;DHT22;8427;52.204;7.202;2024-03-22T03:05:57;10.60;87.70
16627;DHT22;8427;52.204;7.202;2024-03-22T03:08:24;10.60;87.80
16627;DHT22;8427;52.204;7.202;2024-03-22T03:10:50;10.50;87.90
16627;DHT22;8427;52.204;7.202;2024-03-22T03:13:17;10.60;88.10
16627;DHT22;8427;52.204;7.202;2024-03-22T03:15:44;10.70;87.90
16627;DHT22;8427;52.204;7.202;2024-03-22T03:18:11;10.70;87.90
16627;DHT22;8427;52.204;7.202;2024-03-22T03:20:37;10.70;87.70
16627;DHT22;8427;52.204;7.202;2024-03-22T03:23:04;10.70;87.90
16627;DHT22;8427;52.204;7.202;2024-03-22T03:25:30;10.80;87.70
16627;DHT22;8427;52.204;7.202;2024-03-22T03:27:57;10.80;87.80
16627;DHT22;8427;52.204;7.202;2024-03-22T03:30:23;10.70;87.70
16627;DHT22;8427;52.204;7.202;2024-03-22T03:32:51;10.60;87.60
16627;DHT22;8427;52.204;7.202;2024-03-22T03:35:17;10.90;87.60
16627;DHT22;8427;52.204;7.202;2024-03-22T03:37:44;10.80;87.60
16627;DHT22;8427;52.204;7.202;2024-03-22T03:40:10;10.80;87.50
16627;DHT22;8427;52.204;7.202;2024-03-22T03:42:37;10.90;87.50
16627;DHT22;8427;52.204;7.202;2024-03-22T03:45:04;10.80;87.50
16627;DHT22;8427;52.204;7.202;2024-03-22T03:47:31;10.80;87.60
16627;DHT22;8427;52.204;7.202;2024-03-22T03:49:58;10.90;87.60
16627;DHT22;8427;52.204;7.202;2024-03-22T03:52:25;10.90;87.70
16627;DHT22;8427;52.204;7.202;2024-03-22T03:54:51;10.80;87.90
16627;DHT22;8427;52.204;7.202;2024-03-22T03:57:18;10.90;87.80
16627;DHT22;8427;52.204;7.202;2024-03-22T03:59:44;10.90;87.80
16627;DHT22;8427;52.204;7.202;2024-03-22T04:02:11;10.80;87.80
16627;DHT22;8427;52.204;7.202;2024-03-22T04:04:37;10.80;87.80
16627;DHT22;8427;52.204;7.202;2024-03-22T04:07:05;10.90;87.70
16627;DHT22;8427;52.204;7.202;2024-03-22T04:09:31;10.90;87.70
16627;DHT22;8427;52.204;7.202;2024-03-22T04:11:58;10.80;87.90
16627;DHT22;8427;52.204;7.202;2024-03-22T04:14:25;10.90;88.00
16627;DHT22;8427;52.204;7.202;2024-03-22T04:16:52;10.90;87.80
16627;DHT22;8427;52.204;7.202;2024-03-22T04:19:20;10.90;88.10
16627;DHT22;8427;52.204;7.202;2024-03-22T04:21:47;10.90;88.30
16627;DHT22;8427;52.204;7.202;2024-03-22T04:24:15;10.80;88.10
16627;DHT22;8427;52.204;7.202;2024-03-22T04:26:41;11.00;88.10
16627;DHT22;8427;52.204;7.202;2024-03-22T04:29:07;10.90;88.00
16627;DHT22;8427;52.204;7.202;2024-03-22T04:31:34;11.00;88.00
16627;DHT22;8427;52.204;7.202;2024-03-22T04:34:00;11.00;88.00
16627;DHT22;8427;52.204;7.202;2024-03-22T04:36:27;11.00;88.10
16627;DHT22;8427;52.204;7.202;2024-03-22T04:38:53;11.00;88.10
16627;DHT22;8427;52.204;7.202;2024-03-22T04:41:22;11.00;88.20
16627;DHT22;8427;52.204;7.202;2024-03-22T04:43:48;11.10;88.10
16627;DHT22;8427;52.204;7.202;2024-03-22T04:46:15;11.10;88.20
16627;DHT22;8427;52.204;7.202;2024-03-22T04:48:41;11.00;88.00
16627;DHT22;8427;52.204;7.202;2024-03-22T04:51:08;11.00;88.00
16627;DHT22;8427;52.204;7.202;2024-03-22T04:53:35;11.20;87.90
16627;DHT22;8427;52.204;7.202;2024-03-22T04:56:00;11.10;88.00
16627;DHT22;8427;52.204;7.202;2024-03-22T04:58:30;11.00;88.00
16627;DHT22;8427;52.204;7.202;2024-03-22T05:00:56;11.10;87.90
16627;DHT22;8427;52.204;7.202;2024-03-22T05:03:23;11.10;88.00
16627;DHT22;8427;52.204;7.202;2024-03-22T05:05:49;11.20;87.90
16627;DHT22;8427;52.204;7.202;2024-03-22T05:08:16;11.20;87.80
16627;DHT22;8427;52.204;7.202;2024-03-22T05:10:42;11.20;87.80
16627;DHT22;8427;52.204;7.202;2024-03-22T05:13:09;11.20;88.00
16627;DHT22;8427;52.204;7.202;2024-03-22T05:15:37;11.20;87.90
16627;DHT22;8427;52.204;7.202;2024-03-22T05:18:04;11.20;88.00
16627;DHT22;8427;52.204;7.202;2024-03-22T05:20:30;11.20;87.90
16627;DHT22;8427;52.204;7.202;2024-03-22T05:22:57;11.20;88.00
16627;DHT22;8427;52.204;7.202;2024-03-22T05:25:23;11.20;88.00
16627;DHT22;8427;52.204;7.202;2024-03-22T05:27:51;11.10;87.90
16627;DHT22;8427;52.204;7.202;2024-03-22T05:30:17;11.30;87.80
16627;DHT22;8427;52.204;7.202;2024-03-22T05:32:46;11.20;88.00
16627;DHT22;8427;52.204;7.202;2024-03-22T05:35:11;11.30;87.80
16627;DHT22;8427;52.204;7.202;2024-03-22T05:37:38;11.20;87.90
16627;DHT22;8427;52.204;7.202;2024-03-22T05:40:05;11.20;87.90
16627;DHT22;8427;52.204;7.202;2024-03-22T05:42:34;11.30;87.90
16627;DHT22;8427;52.204;7.202;2024-03-22T05:45:00;11.20;88.10
16627;DHT22;8427;52.204;7.202;2024-03-22T05:47:27;11.20;87.90
16627;DHT22;8427;52.204;7.202;2024-03-22T05:49:54;11.20;88.00
16627;DHT22;8427;52.204;7.202;2024-03-22T05:52:21;11.30;87.90
16627;DHT22;8427;52.204;7.202;2024-03-22T05:54:47;11.30;87.80
16627;DHT22;8427;52.204;7.202;2024-03-22T05:57:14;11.40;87.70
16627;DHT22;8427;52.204;7.202;2024-03-22T05:59:40;11.30;87.60
16627;DHT22;8427;52.204;7.202;2024-03-22T06:02:07;11.40;87.70
16627;DHT22;8427;52.204;7.202;2024-03-22T06:04:33;11.30;87.60
16627;DHT22;8427;52.204;7.202;2024-03-22T06:07:03;11.40;87.40
16627;DHT22;8427;52.204;7.202;2024-03-22T06:09:30;11.40;87.30
16627;DHT22;8427;52.204;7.202;2024-03-22T06:12:03;11.40;87.40
16627;DHT22;8427;52.204;7.202;2024-03-22T06:14:30;11.40;87.10
16627;DHT22;8427;52.204;7.202;2024-03-22T06:16:57;11.50;87.00
16627;DHT22;8427;52.204;7.202;2024-03-22T06:19:23;11.50;86.70
16627;DHT22;8427;52.204;7.202;2024-03-22T06:21:50;11.60;86.50
16627;DHT22;8427;52.204;7.202;2024-03-22T06:24:17;11.60;86.30
16627;DHT22;8427;52.204;7.202;2024-03-22T06:26:44;11.60;86.00
16627;DHT22;8427;52.204;7.202;2024-03-22T06:29:10;11.70;85.90
16627;DHT22;8427;52.204;7.202;2024-03-22T06:31:38;11.60;86.10
16627;DHT22;8427;52.204;7.202;2024-03-22T06:34:04;11.60;86.00
16627;DHT22;8427;52.204;7.202;2024-03-22T06:36:34;11.60;85.90
16627;DHT22;8427;52.204;7.202;2024-03-22T06:39:02;11.60;85.70
16627;DHT22;8427;52.204;7.202;2024-03-22T06:41:34;11.60;85.50
16627;DHT22;8427;52.204;7.202;2024-03-22T06:44:06;11.60;85.60
16627;DHT22;8427;52.204;7.202;2024-03-22T06:46:37;11.70;85.40
16627;DHT22;8427;52.204;7.202;2024-03-22T06:49:04;11.70;85.20
16627;DHT22;8427;52.204;7.202;2024-03-22T06:51:31;11.60;85.40
16627;DHT22;8427;52.204;7.202;2024-03-22T06:53:58;11.70;85.30
16627;DHT22;8427;52.204;7.202;2024-03-22T06:56:27;11.60;85.40
16627;DHT22;8427;52.204;7.202;2024-03-22T06:59:01;11.60;85.50
16627;DHT22;8427;52.204;7.202;2024-03-22T07:01:29;11.60;85.30
16627;DHT22;8427;52.204;7.202;2024-03-22T07:03:58;11.90;85.20
16627;DHT22;8427;52.204;7.202;2024-03-22T07:06:28;11.80;84.70
16627;DHT22;8427;52.204;7.202;2024-03-22T07:08:55;11.80;84.80
16627;DHT22;8427;52.204;7.202;2024-03-22T07:11:24;11.50;85.10
16627;DHT22;8427;52.204;7.202;2024-03-22T07:13:51;11.50;85.20
16627;DHT22;8427;52.204;7.202;2024-03-22T07:16:20;11.50;85.20
16627;DHT22;8427;52.204;7.202;2024-03-22T07:18:49;11.50;84.90
16627;DHT22;8427;52.204;7.202;2024-03-22T07:21:19;11.60;84.80
16627;DHT22;8427;52.204;7.202;2024-03-22T07:23:52;11.50;85.10
16627;DHT22;8427;52.204;7.202;2024-03-22T07:26:20;11.50;85.20
16627;DHT22;8427;52.204;7.202;2024-03-22T07:28:46;11.50;84.40
16627;DHT22;8427;52.204;7.202;2024-03-22T07:31:20;11.50;83.90
16627;DHT22;8427;52.204;7.202;2024-03-22T07:33:47;11.70;83.90
16627;DHT22;8427;52.204;7.202;2024-03-22T07:36:16;11.80;83.60
16627;DHT22;8427;52.204;7.202;2024-03-22T07:38:44;11.90;83.30
16627;DHT22;8427;52.204;7.202;2024-03-22T07:41:13;11.90;83.30
16627;DHT22;8427;52.204;7.202;2024-03-22T07:43:42;11.90;83.70
16627;DHT22;8427;52.204;7.202;2024-03-22T07:46:10;11.90;83.40
16627;DHT22;8427;52.204;7.202;2024-03-22T07:48:38;11.90;83.50
16627;DHT22;8427;52.204;7.202;2024-03-22T07:51:05;12.00;82.90
16627;DHT22;8427;52.204;7.202;2024-03-22T07:53:31;12.20;82.60
16627;DHT22;8427;52.204;7.202;2024-03-22T07:55:58;12.30;82.20
16627;DHT22;8427;52.204;7.202;2024-03-22T07:58:26;12.20;82.30
16627;DHT22;8427;52.204;7.202;2024-03-22T08:00:53;12.30;82.20
16627;DHT22;8427;52.204;7.202;2024-03-22T08:03:19;12.30;82.20
16627;DHT22;8427;52.204;7.202;2024-03-22T08:05:47;12.50;81.80
16627;DHT22;8427;52.204;7.202;2024-03-22T08:08:13;12.40;81.80
16627;DHT22;8427;52.204;7.202;2024-03-22T08:10:40;12.20;82.20
16627;DHT22;8427;52.204;7.202;2024-03-22T08:13:06;12.00;82.00
16627;DHT22;8427;52.204;7.202;2024-03-22T08:15:34;12.00;82.40
16627;DHT22;8427;52.204;7.202;2024-03-22T08:18:00;12.00;82.30
16627;DHT22;8427;52.204;7.202;2024-03-22T08:20:31;11.80;82.40
16627;DHT22;8427;52.204;7.202;2024-03-22T08:23:01;11.80;81.90
16627;DHT22;8427;52.204;7.202;2024-03-22T08:25:29;11.70;82.10
16627;DHT22;8427;52.204;7.202;2024-03-22T08:27:58;11.80;82.00
16627;DHT22;8427;52.204;7.202;2024-03-22T08:30:26;12.10;81.90
16627;DHT22;8427;52.204;7.202;2024-03-22T08:32:53;12.20;81.40
16627;DHT22;8427;52.204;7.202;2024-03-22T08:35:23;12.20;80.90
16627;DHT22;8427;52.204;7.202;2024-03-22T08:37:51;12.20;80.80
16627;DHT22;8427;52.204;7.202;2024-03-22T08:40:21;12.40;80.60
16627;DHT22;8427;52.204;7.202;2024-03-22T08:42:51;12.40;79.50
16627;DHT22;8427;52.204;7.202;2024-03-22T08:45:20;12.50;79.90
16627;DHT22;8427;52.204;7.202;2024-03-22T08:47:48;12.60;79.30
16627;DHT22;8427;52.204;7.202;2024-03-22T08:50:16;12.60;78.20
16627;DHT22;8427;52.204;7.202;2024-03-22T08:52:46;12.50;78.40
16627;DHT22;8427;52.204;7.202;2024-03-22T08:55:14;12.40;77.80
16627;DHT22;8427;52.204;7.202;2024-03-22T08:57:46;12.40;78.00
16627;DHT22;8427;52.204;7.202;2024-03-22T09:00:15;12.30;78.20
16627;DHT22;8427;52.204;7.202;2024-03-22T09:02:43;12.20;78.40
16627;DHT22;8427;52.204;7.202;2024-03-22T09:05:15;12.40;78.30
16627;DHT22;8427;52.204;7.202;2024-03-22T09:07:48;12.00;78.30
16627;DHT22;8427;52.204;7.202;2024-03-22T09:10:25;12.00;79.10
16627;DHT22;8427;52.204;7.202;2024-03-22T09:12:54;11.90;79.00
16627;DHT22;8427;52.204;7.202;2024-03-22T09:15:25;12.00;79.10
16627;DHT22;8427;52.204;7.202;2024-03-22T09:17:53;11.90;79.30
16627;DHT22;8427;52.204;7.202;2024-03-22T09:20:21;11.60;79.40
16627;DHT22;8427;52.204;7.202;2024-03-22T09:22:49;11.60;79.70
16627;DHT22;8427;52.204;7.202;2024-03-22T09:25:16;11.50;79.30
16627;DHT22;8427;52.204;7.202;2024-03-22T09:27:50;11.50;79.80
16627;DHT22;8427;52.204;7.202;2024-03-22T09:30:18;11.60;80.00
16627;DHT22;8427;52.204;7.202;2024-03-22T09:32:48;11.50;80.10
16627;DHT22;8427;52.204;7.202;2024-03-22T09:35:15;11.50;80.40
16627;DHT22;8427;52.204;7.202;2024-03-22T09:37:43;11.60;80.00
16627;DHT22;8427;52.204;7.202;2024-03-22T09:40:10;11.50;80.20
16627;DHT22;8427;52.204;7.202;2024-03-22T09:42:41;11.40;80.20
16627;DHT22;8427;52.204;7.202;2024-03-22T09:45:08;11.40;80.40
16627;DHT22;8427;52.204;7.202;2024-03-22T09:47:40;11.40;80.50
16627;DHT22;8427;52.204;7.202;2024-03-22T09:50:07;11.50;80.60
16627;DHT22;8427;52.204;7.202;2024-03-22T09:52:38;11.40;80.50
16627;DHT22;8427;52.204;7.202;2024-03-22T09:55:05;11.50;80.70
16627;DHT22;8427;52.204;7.202;2024-03-22T09:57:37;11.30;81.10
16627;DHT22;8427;52.204;7.202;2024-03-22T10:00:05;11.20;81.70
16627;DHT22;8427;52.204;7.202;2024-03-22T10:02:34;11.30;81.40
16627;DHT22;8427;52.204;7.202;2024-03-22T10:05:02;11.30;81.50
16627;DHT22;8427;52.204;7.202;2024-03-22T10:07:29;11.20;81.60
16627;DHT22;8427;52.204;7.202;2024-03-22T10:09:57;11.20;82.00
16627;DHT22;8427;52.204;7.202;2024-03-22T10:12:24;11.20;82.00
16627;DHT22;8427;52.204;7.202;2024-03-22T10:14:52;11.10;82.70
16627;DHT22;8427;52.204;7.202;2024-03-22T10:17:19;11.20;83.20
16627;DHT22;8427;52.204;7.202;2024-03-22T10:19:45;11.10;83.80
16627;DHT22;8427;52.204;7.202;2024-03-22T10:22:15;11.10;84.20
16627;DHT22;8427;52.204;7.202;2024-03-22T10:24:41;10.90;84.40
16627;DHT22;8427;52.204;7.202;2024-03-22T10:27:08;10.90;84.60
16627;DHT22;8427;52.204;7.202;2024-03-22T10:29:34;11.00;84.90
16627;DHT22;8427;52.204;7.202;2024-03-22T10:32:02;11.00;85.10
16627;DHT22;8427;52.204;7.202;2024-03-22T10:34:28;11.00;85.20
16627;DHT22;8427;52.204;7.202;2024-03-22T10:36:57;11.00;85.70
16627;DHT22;8427;52.204;7.202;2024-03-22T10:39:27;10.90;86.50
16627;DHT22;8427;52.204;7.202;2024-03-22T10:41:55;10.90;87.20
16627;DHT22;8427;52.204;7.202;2024-03-22T10:44:21;10.70;87.50
16627;DHT22;8427;52.204;7.202;2024-03-22T10:46:48;10.60;87.80
16627;DHT22;8427;52.204;7.202;2024-03-22T10:49:15;10.70;88.10
16627;DHT22;8427;52.204;7.202;2024-03-22T10:51:46;10.80;88.40
16627;DHT22;8427;52.204;7.202;2024-03-22T10:54:13;10.70;88.20
16627;DHT22;8427;52.204;7.202;2024-03-22T10:56:47;10.50;88.70
16627;DHT22;8427;52.204;7.202;2024-03-22T10:59:14;10.70;88.60
16627;DHT22;8427;52.204;7.202;2024-03-22T11:01:44;10.70;88.80
16627;DHT22;8427;52.204;7.202;2024-03-22T11:04:10;10.70;88.90
16627;DHT22;8427;52.204;7.202;2024-03-22T11:06:37;10.70;88.90
16627;DHT22;8427;52.204;7.202;2024-03-22T11:09:03;10.70;89.10
16627;DHT22;8427;52.204;7.202;2024-03-22T11:11:30;10.80;89.30
16627;DHT22;8427;52.204;7.202;2024-03-22T11:14:00;10.60;89.60
16627;DHT22;8427;52.204;7.202;2024-03-22T11:16:29;10.80;89.90
16627;DHT22;8427;52.204;7.202;2024-03-22T11:18:55;10.80;89.80
16627;DHT22;8427;52.204;7.202;2024-03-22T11:21:22;10.80;90.10
16627;DHT22;8427;52.204;7.202;2024-03-22T11:23:49;11.10;90.30
16627;DHT22;8427;52.204;7.202;2024-03-22T11:26:16;11.30;89.80
16627;DHT22;8427;52.204;7.202;2024-03-22T11:28:42;11.10;89.30
16627;DHT22;8427;52.204;7.202;2024-03-22T11:31:10;11.10;89.50
16627;DHT22;8427;52.204;7.202;2024-03-22T11:33:38;11.10;89.10
16627;DHT22;8427;52.204;7.202;2024-03-22T11:36:05;11.10;89.70
16627;DHT22;8427;52.204;7.202;2024-03-22T11:38:32;11.00;90.00
16627;DHT22;8427;52.204;7.202;2024-03-22T11:40:58;11.00;90.40
16627;DHT22;8427;52.204;7.202;2024-03-22T11:43:26;11.10;90.00
16627;DHT22;8427;52.204;7.202;2024-03-22T11:45:53;11.00;90.30
16627;DHT22;8427;52.204;7.202;2024-03-22T11:48:22;11.00;90.10
16627;DHT22;8427;52.204;7.202;2024-03-22T11:50:49;11.00;90.40
16627;DHT22;8427;52.204;7.202;2024-03-22T11:53:16;10.80;90.80
16627;DHT22;8427;52.204;7.202;2024-03-22T11:55:42;10.90;90.70
16627;DHT22;8427;52.204;7.202;2024-03-22T11:58:09;11.00;90.90
16627;DHT22;8427;52.204;7.202;2024-03-22T12:00:35;10.80;90.80
16627;DHT22;8427;52.204;7.202;2024-03-22T12:03:03;11.00;90.80
16627;DHT22;8427;52.204;7.202;2024-03-22T12:05:31;10.90;91.10
16627;DHT22;8427;52.204;7.202;2024-03-22T12:07:58;11.00;91.00
16627;DHT22;8427;52.204;7.202;2024-03-22T12:10:24;11.00;91.00
16627;DHT22;8427;52.204;7.202;2024-03-22T12:12:51;11.10;91.10
16627;DHT22;8427;52.204;7.202;2024-03-22T12:15:19;11.00;91.30
16627;DHT22;8427;52.204;7.202;2024-03-22T12:17:47;10.90;91.00
16627;DHT22;8427;52.204;7.202;2024-03-22T12:20:13;10.80;90.90
16627;DHT22;8427;52.204;7.202;2024-03-22T12:22:42;10.80;91.40
16627;DHT22;8427;52.204;7.202;2024-03-22T12:25:08;10.70;91.60
16627;DHT22;8427;52.204;7.202;2024-03-22T12:27:37;10.50;92.20
16627;DHT22;8427;52.204;7.202;2024-03-22T12:30:03;10.70;92.40
16627;DHT22;8427;52.204;7.202;2024-03-22T12:32:32;10.70;92.00
16627;DHT22;8427;52.204;7.202;2024-03-22T12:34:57;10.70;92.30
16627;DHT22;8427;52.204;7.202;2024-03-22T12:37:25;10.60;92.30
16627;DHT22;8427;52.204;7.202;2024-03-22T12:40:18;10.70;92.30
16627;DHT22;8427;52.204;7.202;2024-03-22T12:43:16;10.60;92.30
16627;DHT22;8427;52.204;7.202;2024-03-22T12:45:41;10.60;92.50
16627;DHT22;8427;52.204;7.202;2024-03-22T12:48:08;10.70;92.50
16627;DHT22;8427;52.204;7.202;2024-03-22T12:50:37;10.70;92.60
16627;DHT22;8427;52.204;7.202;2024-03-22T12:53:15;10.60;92.20
16627;DHT22;8427;52.204;7.202;2024-03-22T12:55:48;10.50;92.60
16627;DHT22;8427;52.204;7.202;2024-03-22T12:58:14;10.50;92.70
16627;DHT22;8427;52.204;7.202;2024-03-22T13:00:49;10.60;92.40
16627;DHT22;8427;52.204;7.202;2024-03-22T13:03:16;10.60;92.40
16627;DHT22;8427;52.204;7.202;2024-03-22T13:05:48;10.70;92.60
16627;DHT22;8427;52.204;7.202;2024-03-22T13:08:18;10.80;92.40
16627;DHT22;8427;52.204;7.202;2024-03-22T13:16:52;10.60;92.50
16627;DHT22;8427;52.204;7.202;2024-03-22T13:19:21;10.70;92.50
16627;DHT22;8427;52.204;7.202;2024-03-22T13:21:55;10.60;92.40
16627;DHT22;8427;52.204;7.202;2024-03-22T13:24:22;10.60;92.50
16627;DHT22;8427;52.204;7.202;2024-03-22T13:26:51;10.60;92.80
16627;DHT22;8427;52.204;7.202;2024-03-22T13:30:08;10.70;92.70
16627;DHT22;8427;52.204;7.202;2024-03-22T13:32:58;10.60;92.70
16627;DHT22;8427;52.204;7.202;2024-03-22T13:35:29;10.70;92.60
16627;DHT22;8427;52.204;7.202;2024-03-22T13:37:55;10.70;92.90
16627;DHT22;8427;52.204;7.202;2024-03-22T13:40:39;10.70;92.90
16627;DHT22;8427;52.204;7.202;2024-03-22T13:43:12;10.80;93.00
16627;DHT22;8427;52.204;7.202;2024-03-22T13:45:39;10.90;92.70
16627;DHT22;8427;52.204;7.202;2024-03-22T13:48:16;10.90;92.30
16627;DHT22;8427;52.204;7.202;2024-03-22T13:57:31;10.60;92.90
16627;DHT22;8427;52.204;7.202;2024-03-22T13:59:59;10.70;92.90
16627;DHT22;8427;52.204;7.202;2024-03-22T14:02:43;10.60;93.00
16627;DHT22;8427;52.204;7.202;2024-03-22T14:05:13;10.70;93.40
16627;DHT22;8427;52.204;7.202;2024-03-22T14:07:40;10.70;92.80
16627;DHT22;8427;52.204;7.202;2024-03-22T14:10:09;10.80;93.00
16627;DHT22;8427;52.204;7.202;2024-03-22T14:12:40;10.80;92.80
16627;DHT22;8427;52.204;7.202;2024-03-22T14:15:08;10.90;92.80
16627;DHT22;8427;52.204;7.202;2024-03-22T14:17:37;10.80;92.90
16627;DHT22;8427;52.204;7.202;2024-03-22T14:20:15;10.90;92.90
16627;DHT22;8427;52.204;7.202;2024-03-22T14:22:46;10.90;92.90
16627;DHT22;8427;52.204;7.202;2024-03-22T14:25:16;10.60;92.50
16627;DHT22;8427;52.204;7.202;2024-03-22T14:27:46;10.70;92.90
16627;DHT22;8427;52.204;7.202;2024-03-22T14:30:17;10.70;93.10
16627;DHT22;8427;52.204;7.202;2024-03-22T14:32:50;10.70;92.80
16627;DHT22;8427;52.204;7.202;2024-03-22T14:35:20;10.90;93.10
16627;DHT22;8427;52.204;7.202;2024-03-22T14:37:50;10.80;92.90
16627;DHT22;8427;52.204;7.202;2024-03-22T14:40:35;10.80;93.00
16627;DHT22;8427;52.204;7.202;2024-03-22T14:43:14;10.80;92.90
16627;DHT22;8427;52.204;7.202;2024-03-22T14:45:40;10.80;93.10
16627;DHT22;8427;52.204;7.202;2024-03-22T14:48:26;10.70;92.70
16627;DHT22;8427;52.204;7.202;2024-03-22T14:50:58;10.70;93.10
16627;DHT22;8427;52.204;7.202;2024-03-22T14:53:24;10.80;93.00
16627;DHT22;8427;52.204;7.202;2024-03-22T14:56:11;10.90;92.90
16627;DHT22;8427;52.204;7.202;2024-03-22T14:58:42;11.00;92.80
16627;DHT22;8427;52.204;7.202;2024-03-22T15:01:29;11.00;93.00
16627;DHT22;8427;52.204;7.202;2024-03-22T15:04:44;11.00;92.70
16627;DHT22;8427;52.204;7.202;2024-03-22T15:07:20;11.00;92.80
16627;DHT22;8427;52.204;7.202;2024-03-22T15:09:56;11.00;92.70
16627;DHT22;8427;52.204;7.202;2024-03-22T15:12:28;10.90;92.70
16627;DHT22;8427;52.204;7.202;2024-03-22T15:15:10;10.90;92.90
16627;DHT22;8427;52.204;7.202;2024-03-22T15:17:48;10.80;93.00
16627;DHT22;8427;52.204;7.202;2024-03-22T15:20:18;10.80;92.90
16627;DHT22;8427;52.204;7.202;2024-03-22T15:25:45;10.70;93.30
16627;DHT22;8427;52.204;7.202;2024-03-22T15:28:13;10.80;93.40
16627;DHT22;8427;52.204;7.202;2024-03-22T15:30:43;10.80;93.40
16627;DHT22;8427;52.204;7.202;2024-03-22T15:33:14;10.80;93.30
16627;DHT22;8427;52.204;7.202;2024-03-22T15:35:44;10.70;93.10
16627;DHT22;8427;52.204;7.202;2024-03-22T15:38:34;10.50;92.90
16627;DHT22;8427;52.204;7.202;2024-03-22T15:50:34;10.10;92.60
16627;DHT22;8427;52.204;7.202;2024-03-22T15:53:23;9.90;92.50
16627;DHT22;8427;52.204;7.202;2024-03-22T15:55:51;9.60;92.60
16627;DHT22;8427;52.204;7.202;2024-03-22T15:58:24;9.50;92.60
16627;DHT22;8427;52.204;7.202;2024-03-22T16:01:04;9.60;93.10
16627;DHT22;8427;52.204;7.202;2024-03-22T16:04:03;9.60;92.60
16627;DHT22;8427;52.204;7.202;2024-03-22T16:06:58;9.60;93.10
16627;DHT22;8427;52.204;7.202;2024-03-22T16:09:38;9.60;93.10
16627;DHT22;8427;52.204;7.202;2024-03-22T16:12:19;9.70;93.40
16627;DHT22;8427;52.204;7.202;2024-03-22T16:18:06;9.70;92.90
16627;DHT22;8427;52.204;7.202;2024-03-22T16:20:39;9.70;93.40
16627;DHT22;8427;52.204;7.202;2024-03-22T16:45:46;9.80;93.80
16627;DHT22;8427;52.204;7.202;2024-03-22T16:48:13;9.60;93.80
16627;DHT22;8427;52.204;7.202;2024-03-22T16:50:49;9.80;93.60